Time,TemperatureF,DewpointF,PressureIn,WindDirection,WindDirectionDegrees,WindSpeedMPH,WindSpeedGustMPH,Humidity,HourlyPrecipIn,Conditions,Clouds,dailyrainin,SoftwareType,DateUTC
2013-01-09 00:03:00,32.2,15.2,30.17,ESE,121,0.0,0.0,49,0.00,-RA,OVC,0.00,WeatherDisplay:10.37,2013-01-09 07:03:00,
2013-01-09 00:08:00,32.5,15.0,30.17,ESE,121,0.0,0.0,48,0.00,-RA,OVC,0.00,WeatherDisplay:10.37,2013-01-09 07:08:00,
2013-01-09 00:13:00,32.5,15.0,30.17,ESE,121,0.0,0.0,48,0.00,-RA,OVC,0.00,WeatherDisplay:10.37,2013-01-09 07:13:00,
2013-01-09 00:18:00,32.0,15.4,30.17,ESE,121,0.0,0.0,50,0.00,-RA,OVC,0.00,WeatherDisplay:10.37,2013-01-09 07:18:00,
2013-01-09 00:23:00,31.3,15.2,30.17,ESE,121,2.3,2.3,51,0.00,-RA,OVC,0.00,WeatherDisplay:10.37,2013-01-09 07:23:00,
2013-01-09 00:28:00,30.3,15.2,30.17,ESE,121,0.0,0.0,53,0.00,-RA,OVC,0.00,WeatherDisplay:10.37,2013-01-09 07:28:00,
2013-01-09 00:33:00,29.8,15.2,30.17,ESE,121,0.0,0.0,54,0.00,-RA,OVC,0.00,WeatherDisplay:10.37,2013-01-09 07:33:00,
2013-01-09 00:38:00,29.3,15.1,30.17,ESE,121,0.0,0.0,55,0.00,-RA,OVC,0.00,WeatherDisplay:10.37,2013-01-09 07:38:00,
2013-01-09 00:43:00,29.0,15.2,30.17,ESE,121,2.3,2.3,56,0.00,-RA,OVC,0.00,WeatherDisplay:10.37,2013-01-09 07:43:00,
2013-01-09 00:48:00,28.5,14.8,30.17,ESE,121,0.0,0.0,56,0.00,-RA,OVC,0.00,WeatherDisplay:10.37,2013-01-09 07:48:00,
2013-01-09 00:53:00,28.1,14.8,30.17,ESE,121,3.5,3.5,57,0.00,-RA,OVC,0.00,WeatherDisplay:10.37,2013-01-09 07:53:00,
2013-01-09 00:58:00,27.5,14.6,30.17,ESE,121,0.0,0.0,58,0.00,-RA,OVC,0.00,WeatherDisplay:10.37,2013-01-09 07:58:00,
2013-01-09 01:03:00,27.2,14.8,30.17,ESE,121,2.3,2.3,59,0.00,-RA,OVC,0.00,WeatherDisplay:10.37,2013-01-09 08:03:00,
2013-01-09 01:08:00,26.9,14.9,30.17,ESE,121,0.0,0.0,60,0.00,-RA,OVC,0.00,WeatherDisplay:10.37,2013-01-09 08:08:00,
2013-01-09 01:13:00,26.9,14.9,30.18,ESE,121,0.0,0.0,60,0.00,-RA,OVC,0.00,WeatherDisplay:10.37,2013-01-09 08:13:00,
2013-01-09 01:18:00,26.9,14.9,30.18,ESE,121,0.0,0.0,60,0.00,-RA,OVC,0.00,WeatherDisplay:10.37,2013-01-09 08:18:00,
2013-01-09 01:23:00,26.8,14.8,30.18,ESE,121,2.3,2.3,60,0.00,-RA,OVC,0.00,WeatherDisplay:10.37,2013-01-09 08:23:00,
2013-01-09 01:28:00,26.6,14.6,30.18,ESE,121,1.1,1.1,60,0.00,-RA,OVC,0.00,WeatherDisplay:10.37,2013-01-09 08:28:00,
2013-01-09 01:33:00,26.5,14.5,30.19,ESE,121,0.0,0.0,60,0.00,-RA,OVC,0.00,WeatherDisplay:10.37,2013-01-09 08:33:00,
2013-01-09 01:38:00,26.4,14.8,30.19,ESE,121,2.3,2.3,61,0.00,-RA,OVC,0.00,WeatherDisplay:10.37,2013-01-09 08:38:00,
2013-01-09 01:43:00,26.4,14.4,30.19,ESE,121,0.0,0.0,60,0.00,-RA,OVC,0.00,WeatherDisplay:10.37,2013-01-09 08:43:00,
2013-01-09 01:48:00,26.5,14.5,30.19,ESE,121,0.0,0.0,60,0.00,-RA,OVC,0.00,WeatherDisplay:10.37,2013-01-09 08:48:00,
2013-01-09 01:53:00,26.5,14.5,30.19,ESE,121,0.0,0.0,60,0.00,-RA,OVC,0.00,WeatherDisplay:10.37,2013-01-09 08:53:00,
2013-01-09 01:58:00,26.4,14.4,30.19,ESE,121,1.1,0.0,60,0.00,-RA,OVC,0.00,WeatherDisplay:10.37,2013-01-09 08:58:00,
2013-01-09 02:03:00,26.2,14.6,30.19,ESE,121,1.1,1.1,61,0.00,-RA,OVC,0.00,WeatherDisplay:10.37,2013-01-09 09:03:00,
2013-01-09 02:08:00,26.1,14.5,30.19,ESE,121,0.0,0.0,61,0.00,-RA,OVC,0.00,WeatherDisplay:10.37,2013-01-09 09:08:00,
2013-01-09 02:13:00,26.0,14.4,30.19,ESE,121,0.0,0.0,61,0.00,-RA,OVC,0.00,WeatherDisplay:10.37,2013-01-09 09:13:00,
2013-01-09 02:18:00,25.8,14.6,30.19,ESE,121,3.5,3.5,62,0.00,-RA,OVC,0.00,WeatherDisplay:10.37,2013-01-09 09:18:00,
2013-01-09 02:23:00,26.3,14.7,30.19,ESE,121,2.3,2.3,61,0.00,-RA,OVC,0.00,WeatherDisplay:10.37,2013-01-09 09:23:00,
2013-01-09 02:28:00,26.9,14.1,30.19,ESE,121,0.0,0.0,58,0.00,-RA,OVC,0.00,WeatherDisplay:10.37,2013-01-09 09:28:00,
2013-01-09 02:33:00,27.5,14.2,30.19,ESE,121,1.0,1.0,57,0.00,-RA,OVC,0.00,WeatherDisplay:10.37,2013-01-09 09:33:00,
2013-01-09 02:38:00,27.8,14.1,30.19,ESE,121,0.0,0.0,56,0.00,-RA,OVC,0.00,WeatherDisplay:10.37,2013-01-09 09:38:00,
2013-01-09 02:43:00,27.8,14.1,30.19,ESE,121,2.3,2.3,56,0.00,-RA,OVC,0.00,WeatherDisplay:10.37,2013-01-09 09:43:00,
2013-01-09 02:48:00,27.7,14.4,30.19,ESE,121,0.0,0.0,57,0.00,-RA,OVC,0.00,WeatherDisplay:10.37,2013-01-09 09:48:00,
2013-01-09 02:53:00,27.7,14.4,30.19,ESE,121,0.0,0.0,57,0.00,-RA,OVC,0.00,WeatherDisplay:10.37,2013-01-09 09:53:00,
2013-01-09 02:58:00,27.9,13.8,30.19,ESE,121,2.3,2.3,55,0.00,-RA,OVC,0.00,WeatherDisplay:10.37,2013-01-09 09:58:00,
2013-01-09 03:03:00,28.0,13.9,30.19,ESE,121,1.1,1.1,55,0.00,-RA,OVC,0.00,WeatherDisplay:10.37,2013-01-09 10:03:00,
2013-01-09 03:08:00,27.8,14.1,30.19,ESE,121,0.0,0.0,56,0.00,-RA,OVC,0.00,WeatherDisplay:10.37,2013-01-09 10:08:00,
2013-01-09 03:13:00,27.6,13.9,30.19,ESE,121,0.0,0.0,56,0.00,-RA,OVC,0.00,WeatherDisplay:10.37,2013-01-09 10:13:00,
2013-01-09 03:18:00,27.3,14.1,30.19,ESE,121,1.1,1.1,57,0.00,-RA,OVC,0.00,WeatherDisplay:10.37,2013-01-09 10:18:00,
2013-01-09 03:23:00,27.1,13.9,30.19,ESE,121,3.5,3.5,57,0.00,-RA,OVC,0.00,WeatherDisplay:10.37,2013-01-09 10:23:00,
2013-01-09 03:28:00,26.9,14.1,30.19,ESE,121,3.5,3.5,58,0.00,-RA,OVC,0.00,WeatherDisplay:10.37,2013-01-09 10:28:00,
2013-01-09 03:33:00,26.6,13.8,30.19,ESE,121,2.0,2.0,58,0.00,-RA,OVC,0.00,WeatherDisplay:10.37,2013-01-09 10:33:00,
2013-01-09 03:38:00,26.3,13.9,30.19,ESE,121,0.0,0.0,59,0.00,-RA,OVC,0.00,WeatherDisplay:10.37,2013-01-09 10:38:00,
2013-01-09 03:43:00,26.1,13.7,30.18,ESE,121,0.0,0.0,59,0.00,-RA,OVC,0.00,WeatherDisplay:10.37,2013-01-09 10:43:00,
2013-01-09 03:48:00,26.0,14.0,30.18,ESE,121,1.0,0.0,60,0.00,-RA,OVC,0.00,WeatherDisplay:10.37,2013-01-09 10:48:00,
2013-01-09 03:53:00,25.9,13.9,30.18,ESE,121,0.0,0.0,60,0.00,-RA,OVC,0.00,WeatherDisplay:10.37,2013-01-09 10:53:00,
2013-01-09 03:58:00,25.7,13.7,30.18,ESE,121,3.5,3.5,60,0.00,-RA,OVC,0.00,WeatherDisplay:10.37,2013-01-09 10:58:00,
2013-01-09 04:03:00,25.9,13.9,30.18,ESE,121,2.3,2.3,60,0.00,-RA,OVC,0.00,WeatherDisplay:10.37,2013-01-09 11:03:00,
2013-01-09 04:08:00,26.4,14.0,30.18,ESE,121,3.5,3.5,59,0.00,-RA,OVC,0.00,WeatherDisplay:10.37,2013-01-09 11:08:00,
2013-01-09 04:13:00,27.3,14.1,30.18,ESE,121,1.1,0.0,57,0.00,-RA,OVC,0.00,WeatherDisplay:10.37,2013-01-09 11:13:00,
2013-01-09 04:18:00,27.5,14.2,30.18,ESE,121,2.0,2.0,57,0.00,-RA,OVC,0.00,WeatherDisplay:10.37,2013-01-09 11:18:00,
2013-01-09 04:23:00,26.8,14.0,30.18,ESE,121,0.0,0.0,58,0.00,-RA,OVC,0.00,WeatherDisplay:10.37,2013-01-09 11:23:00,
2013-01-09 04:28:00,26.2,13.8,30.18,ESE,121,0.0,0.0,59,0.00,-RA,OVC,0.00,WeatherDisplay:10.37,2013-01-09 11:28:00,
2013-01-09 04:33:00,25.9,13.9,30.18,ESE,121,1.1,0.0,60,0.00,-RA,OVC,0.00,WeatherDisplay:10.37,2013-01-09 11:33:00,
2013-01-09 04:38:00,25.7,13.7,30.18,ESE,121,1.1,0.0,60,0.00,-RA,OVC,0.00,WeatherDisplay:10.37,2013-01-09 11:38:00,
2013-01-09 04:43:00,25.7,13.7,30.18,ESE,121,3.5,3.5,60,0.00,-RA,OVC,0.00,WeatherDisplay:10.37,2013-01-09 11:43:00,
2013-01-09 04:48:00,25.8,13.8,30.18,ESE,121,3.5,3.5,60,0.00,-RA,OVC,0.00,WeatherDisplay:10.37,2013-01-09 11:48:00,
2013-01-09 04:53:00,25.9,13.9,30.18,ESE,121,2.3,2.3,60,0.00,-RA,OVC,0.00,WeatherDisplay:10.37,2013-01-09 11:53:00,
2013-01-09 04:58:00,26.2,13.8,30.18,ESE,121,1.1,0.0,59,0.00,-RA,OVC,0.00,WeatherDisplay:10.37,2013-01-09 11:58:00,
2013-01-09 05:03:00,26.3,13.9,30.18,ESE,121,0.0,0.0,59,0.00,-RA,OVC,0.00,WeatherDisplay:10.37,2013-01-09 12:03:00,
2013-01-09 05:08:00,26.3,13.9,30.18,ESE,121,0.0,0.0,59,0.00,-RA,OVC,0.00,WeatherDisplay:10.37,2013-01-09 12:08:00,
2013-01-09 05:13:00,26.0,14.0,30.18,ESE,121,0.0,0.0,60,0.00,-RA,OVC,0.00,WeatherDisplay:10.37,2013-01-09 12:13:00,
2013-01-09 05:18:00,25.6,13.6,30.18,ESE,121,0.0,0.0,60,0.00,-RA,OVC,0.00,WeatherDisplay:10.37,2013-01-09 12:18:00,
2013-01-09 05:23:00,25.2,13.6,30.18,North,355,4.6,4.6,61,0.00,-RA,OVC,0.00,WeatherDisplay:10.37,2013-01-09 12:23:00,
2013-01-09 05:28:00,25.0,13.8,30.18,North,355,0.0,0.0,62,0.00,-RA,OVC,0.00,WeatherDisplay:10.37,2013-01-09 12:28:00,
2013-01-09 05:33:00,24.9,13.7,30.18,North,355,0.0,0.0,62,0.00,-RA,OVC,0.00,WeatherDisplay:10.37,2013-01-09 12:33:00,
2013-01-09 05:38:00,24.7,13.9,30.18,North,5,0.0,0.0,63,0.00,-RA,OVC,0.00,WeatherDisplay:10.37,2013-01-09 12:38:00,
2013-01-09 05:43:00,24.5,13.7,30.18,North,5,1.1,1.1,63,0.00,-RA,OVC,0.00,WeatherDisplay:10.37,2013-01-09 12:43:00,
2013-01-09 05:48:00,24.4,13.6,30.18,North,5,0.0,0.0,63,0.00,-RA,OVC,0.00,WeatherDisplay:10.37,2013-01-09 12:48:00,
2013-01-09 05:53:00,24.3,13.9,30.18,East,81,3.5,3.5,64,0.00,-RA,OVC,0.00,WeatherDisplay:10.37,2013-01-09 12:53:00,
2013-01-09 05:58:00,24.5,14.1,30.18,East,98,3.5,3.5,64,0.00,-RA,OVC,0.00,WeatherDisplay:10.37,2013-01-09 12:58:00,
2013-01-09 06:03:00,25.0,14.2,30.18,East,98,3.5,3.5,63,0.00,-RA,OVC,0.00,WeatherDisplay:10.37,2013-01-09 13:03:00,
2013-01-09 06:08:00,25.6,14.0,30.18,East,98,1.1,1.1,61,0.00,-RA,OVC,0.00,WeatherDisplay:10.37,2013-01-09 13:08:00,
2013-01-09 06:13:00,25.7,14.1,30.18,East,98,1.0,0.0,61,0.00,-RA,OVC,0.00,WeatherDisplay:10.37,2013-01-09 13:13:00,
2013-01-09 06:18:00,25.6,14.0,30.18,East,98,0.0,0.0,61,0.00,-RA,OVC,0.00,WeatherDisplay:10.37,2013-01-09 13:18:00,
2013-01-09 06:23:00,25.2,14.0,30.18,East,98,0.0,0.0,62,0.00,-RA,OVC,0.00,WeatherDisplay:10.37,2013-01-09 13:23:00,
2013-01-09 06:28:00,24.7,13.9,30.18,East,98,0.0,0.0,63,0.00,-RA,OVC,0.00,WeatherDisplay:10.37,2013-01-09 13:28:00,
2013-01-09 06:33:00,24.2,13.8,30.18,East,98,0.0,0.0,64,0.00,-RA,OVC,0.00,WeatherDisplay:10.37,2013-01-09 13:33:00,
2013-01-09 06:38:00,23.9,13.8,30.18,East,98,2.3,2.3,65,0.00,-RA,OVC,0.00,WeatherDisplay:10.37,2013-01-09 13:38:00,
2013-01-09 06:43:00,23.8,13.7,30.18,East,98,1.1,1.1,65,0.00,-RA,OVC,0.00,WeatherDisplay:10.37,2013-01-09 13:43:00,
2013-01-09 06:48:00,23.6,13.9,30.18,East,98,0.0,0.0,66,0.00,-RA,OVC,0.00,WeatherDisplay:10.37,2013-01-09 13:48:00,
2013-01-09 06:53:00,23.6,13.9,30.18,East,98,0.0,0.0,66,0.00,-RA,OVC,0.00,WeatherDisplay:10.37,2013-01-09 13:53:00,
2013-01-09 06:58:00,23.4,13.7,30.18,East,98,0.0,0.0,66,0.00,-RA,OVC,0.00,WeatherDisplay:10.37,2013-01-09 13:58:00,
2013-01-09 07:03:00,23.0,13.7,30.18,East,98,2.3,2.3,67,0.00,-RA,OVC,0.00,WeatherDisplay:10.37,2013-01-09 14:03:00,
2013-01-09 07:08:00,22.9,13.9,30.18,East,98,2.3,2.3,68,0.00,-RA,OVC,0.00,WeatherDisplay:10.37,2013-01-09 14:08:00,
2013-01-09 07:13:00,23.1,14.1,30.18,East,98,3.5,3.5,68,0.00,-RA,OVC,0.00,WeatherDisplay:10.37,2013-01-09 14:13:00,
2013-01-09 07:18:00,23.3,14.0,30.18,East,98,2.3,2.3,67,0.00,-RA,OVC,0.00,WeatherDisplay:10.37,2013-01-09 14:18:00,
2013-01-09 07:23:00,23.5,14.1,30.18,East,98,0.0,0.0,67,0.00,-RA,OVC,0.00,WeatherDisplay:10.37,2013-01-09 14:23:00,
2013-01-09 07:28:00,23.4,14.0,30.18,East,98,0.0,0.0,67,0.00,-RA,OVC,0.00,WeatherDisplay:10.37,2013-01-09 14:28:00,
2013-01-09 07:33:00,23.3,14.0,30.18,East,98,0.0,0.0,67,0.00,-RA,OVC,0.00,WeatherDisplay:10.37,2013-01-09 14:33:00,
2013-01-09 07:38:00,23.2,13.9,30.18,East,98,0.0,0.0,67,0.00,-RA,OVC,0.00,WeatherDisplay:10.37,2013-01-09 14:38:00,
2013-01-09 07:43:00,23.3,14.3,30.18,East,98,0.0,0.0,68,0.00,-RA,OVC,0.00,WeatherDisplay:10.37,2013-01-09 14:43:00,
2013-01-09 07:48:00,23.3,14.0,30.18,East,98,2.3,2.3,67,0.00,-RA,OVC,0.00,WeatherDisplay:10.37,2013-01-09 14:48:00,
2013-01-09 07:53:00,23.6,14.2,30.18,East,98,0.0,0.0,67,0.00,-RA,OVC,0.00,WeatherDisplay:10.37,2013-01-09 14:53:00,
2013-01-09 07:58:00,24.3,14.9,30.18,East,98,2.3,2.3,67,0.00,-RA,OVC,0.00,WeatherDisplay:10.37,2013-01-09 14:58:00,
2013-01-09 08:03:00,25.1,15.0,30.18,East,98,0.0,0.0,65,0.00,-RA,OVC,0.00,WeatherDisplay:10.37,2013-01-09 15:03:00,
2013-01-09 08:08:00,25.6,15.1,30.18,East,97,2.3,2.3,64,0.00,-RA,OVC,0.00,WeatherDisplay:10.37,2013-01-09 15:08:00,
2013-01-09 08:13:00,26.1,15.6,30.18,East,97,0.0,0.0,64,0.00,-RA,OVC,0.00,WeatherDisplay:10.37,2013-01-09 15:13:00,
2013-01-09 08:18:00,26.8,15.5,30.18,East,97,1.1,0.0,62,0.00,-RA,OVC,0.00,WeatherDisplay:10.37,2013-01-09 15:18:00,
2013-01-09 08:23:00,27.7,15.2,30.18,East,96,3.5,3.5,59,0.00,-RA,OVC,0.00,WeatherDisplay:10.37,2013-01-09 15:23:00,
2013-01-09 08:28:00,28.7,15.0,30.18,NNE,18,9.2,9.2,56,0.00,-RA,OVC,0.00,WeatherDisplay:10.37,2013-01-09 15:28:00,
2013-01-09 08:33:00,29.6,15.4,30.18,NNE,22,3.5,3.5,55,0.00,-RA,OVC,0.00,WeatherDisplay:10.37,2013-01-09 15:33:00,
2013-01-09 08:38:00,30.5,15.8,30.18,NE,49,4.6,4.6,54,0.00,-RA,OVC,0.00,WeatherDisplay:10.37,2013-01-09 15:38:00,
2013-01-09 08:43:00,31.2,15.6,30.18,NNE,29,5.8,5.8,52,0.00,-RA,OVC,0.00,WeatherDisplay:10.37,2013-01-09 15:43:00,
2013-01-09 08:48:00,31.8,15.7,30.18,NNE,26,4.6,4.6,51,0.00,-RA,OVC,0.00,WeatherDisplay:10.37,2013-01-09 15:48:00,
2013-01-09 08:53:00,32.5,15.9,30.18,North,10,3.5,3.5,50,0.00,-RA,OVC,0.00,WeatherDisplay:10.37,2013-01-09 15:53:00,
2013-01-09 08:58:00,33.1,16.0,30.18,NE,46,4.0,4.0,49,0.00,-RA,OVC,0.00,WeatherDisplay:10.37,2013-01-09 15:58:00,
2013-01-09 09:03:00,33.9,15.8,30.18,NE,37,6.9,6.9,47,0.00,-RA,OVC,0.00,WeatherDisplay:10.37,2013-01-09 16:03:00,
2013-01-09 09:08:00,34.6,15.4,30.18,NE,46,5.8,5.8,45,0.00,-RA,OVC,0.00,WeatherDisplay:10.37,2013-01-09 16:08:00,
2013-01-09 09:13:00,35.4,15.6,30.18,ENE,58,4.6,4.6,44,0.00,-RA,OVC,0.00,WeatherDisplay:10.37,2013-01-09 16:13:00,
2013-01-09 09:18:00,36.1,15.7,30.18,NE,47,3.5,3.5,43,0.00,-RA,OVC,0.00,WeatherDisplay:10.37,2013-01-09 16:18:00,
2013-01-09 09:23:00,36.9,15.4,30.18,NE,36,6.9,6.9,41,0.00,-RA,OVC,0.00,WeatherDisplay:10.37,2013-01-09 16:23:00,
2013-01-09 09:28:00,37.7,16.1,30.18,NE,41,3.5,3.5,41,0.00,-RA,OVC,0.00,WeatherDisplay:10.37,2013-01-09 16:28:00,
2013-01-09 09:33:00,38.5,16.2,30.24,NE,38,3.5,3.5,40,0.00,-RA,OVC,0.00,WeatherDisplay:10.37,2013-01-09 16:33:00,
2013-01-09 09:38:00,39.3,16.4,30.24,North,9,4.6,4.6,39,0.00,-RA,OVC,0.00,WeatherDisplay:10.37,2013-01-09 16:38:00,
2013-01-09 09:43:00,40.0,16.4,30.24,North,5,4.6,4.6,38,0.00,-RA,OVC,0.00,WeatherDisplay:10.37,2013-01-09 16:43:00,
2013-01-09 09:48:00,40.7,16.4,30.24,NNE,26,3.5,3.5,37,0.00,-RA,OVC,0.00,WeatherDisplay:10.37,2013-01-09 16:48:00,
2013-01-09 09:53:00,41.2,16.2,30.24,North,351,5.8,5.8,36,0.00,-RA,OVC,0.00,WeatherDisplay:10.37,2013-01-09 16:53:00,
2013-01-09 09:58:00,41.5,16.5,30.24,NNE,16,6.9,6.9,36,0.00,-RA,OVC,0.00,WeatherDisplay:10.37,2013-01-09 16:58:00,
2013-01-09 10:03:00,41.9,16.2,30.24,NNW,328,6.9,6.9,35,0.00,-RA,OVC,0.00,WeatherDisplay:10.37,2013-01-09 17:03:00,
2013-01-09 10:08:00,42.3,16.6,30.24,North,360,5.8,5.8,35,0.00,-RA,OVC,0.00,WeatherDisplay:10.37,2013-01-09 17:08:00,
2013-01-09 10:13:00,42.7,16.9,30.24,NNE,14,2.0,2.0,35,0.00,-RA,OVC,0.00,WeatherDisplay:10.37,2013-01-09 17:13:00,
2013-01-09 10:18:00,43.5,16.9,30.24,North,355,3.5,3.5,34,0.00,-RA,OVC,0.00,WeatherDisplay:10.37,2013-01-09 17:18:00,
2013-01-09 10:23:00,44.2,16.2,30.24,NNW,340,8.1,8.1,32,0.00,-RA,OVC,0.00,WeatherDisplay:10.37,2013-01-09 17:23:00,
2013-01-09 10:28:00,44.8,16.0,30.24,NNW,336,5.8,5.8,31,0.00,-RA,OVC,0.00,WeatherDisplay:10.37,2013-01-09 17:28:00,
2013-01-09 10:33:00,45.2,16.3,30.24,NW,320,9.2,9.2,31,0.00,-RA,OVC,0.00,WeatherDisplay:10.37,2013-01-09 17:33:00,
2013-01-09 10:38:00,45.7,15.2,30.24,North,355,9.2,9.2,29,0.00,-RA,OVC,0.00,WeatherDisplay:10.37,2013-01-09 17:38:00,
2013-01-09 10:43:00,46.0,14.7,30.24,NE,46,9.2,9.2,28,0.00,-RA,OVC,0.00,WeatherDisplay:10.37,2013-01-09 17:43:00,
2013-01-09 10:48:00,46.5,15.1,30.24,NNE,15,6.9,6.9,28,0.00,-RA,OVC,0.00,WeatherDisplay:10.37,2013-01-09 17:48:00,
2013-01-09 10:53:00,47.2,14.9,30.24,NNW,333,6.9,6.9,27,0.00,-RA,OVC,0.00,WeatherDisplay:10.37,2013-01-09 17:53:00,
2013-01-09 10:58:00,47.9,14.6,30.24,North,9,5.8,5.8,26,0.00,-RA,OVC,0.00,WeatherDisplay:10.37,2013-01-09 17:58:00,
2013-01-09 11:03:00,48.4,15.0,30.24,NNW,336,6.9,6.9,26,0.00,-RA,OVC,0.00,WeatherDisplay:10.37,2013-01-09 18:03:00,
2013-01-09 11:08:00,48.8,14.5,30.24,NNW,342,4.6,4.6,25,0.00,-RA,OVC,0.00,WeatherDisplay:10.37,2013-01-09 18:08:00,
2013-01-09 11:13:00,49.2,14.8,30.24,North,355,4.6,4.6,25,0.00,-RA,OVC,0.00,WeatherDisplay:10.37,2013-01-09 18:13:00,
2013-01-09 11:18:00,49.5,15.1,30.24,NNE,22,9.2,9.2,25,0.00,-RA,OVC,0.00,WeatherDisplay:10.37,2013-01-09 18:18:00,
2013-01-09 11:23:00,49.6,14.2,30.24,North,9,5.8,5.8,24,0.00,-RA,OVC,0.00,WeatherDisplay:10.37,2013-01-09 18:23:00,
2013-01-09 11:28:00,49.7,14.3,30.24,North,5,5.8,5.8,24,0.00,-RA,OVC,0.00,WeatherDisplay:10.37,2013-01-09 18:28:00,
2013-01-09 11:33:00,50.0,14.6,30.24,NNW,339,9.2,9.2,24,0.00,-RA,OVC,0.00,WeatherDisplay:10.37,2013-01-09 18:33:00,
2013-01-09 11:38:00,50.5,15.0,30.24,NNW,346,3.5,3.5,24,0.00,-RA,OVC,0.00,WeatherDisplay:10.37,2013-01-09 18:38:00,
2013-01-09 11:41:00,50.8,15.2,30.24,North,5,8.1,8.1,24,0.00,-RA,OVC,0.00,WeatherDisplay:10.37,2013-01-09 18:41:00,
2013-01-09 11:42:00,50.8,15.2,30.24,North,5,8.1,8.1,24,0.00,-RA,OVC,0.00,WeatherDisplay:10.37,2013-01-09 18:42:00,
2013-01-09 11:44:00,51.0,14.4,30.24,North,360,4.6,4.6,23,0.00,-RA,OVC,0.00,WeatherDisplay:10.37,2013-01-09 18:44:00,
2013-01-09 11:48:00,51.3,14.7,30.24,NNW,345,5.8,5.8,23,0.00,-RA,OVC,0.00,WeatherDisplay:10.37,2013-01-09 18:48:00,
2013-01-09 11:49:00,51.4,14.8,30.24,NNW,345,3.5,3.5,23,0.00,-RA,OVC,0.00,WeatherDisplay:10.37,2013-01-09 18:49:00,
2013-01-09 11:54:00,52.1,15.4,30.24,NE,35,5.8,5.8,23,0.00,-RA,OVC,0.00,WeatherDisplay:10.37,2013-01-09 18:54:00,
2013-01-09 11:59:00,53.0,15.1,30.24,NE,35,3.5,3.5,22,0.00,-RA,OVC,0.00,WeatherDisplay:10.37,2013-01-09 18:59:00,
2013-01-09 12:04:00,53.7,15.7,30.24,NNE,16,3.5,3.5,22,0.00,-RA,OVC,0.00,WeatherDisplay:10.37,2013-01-09 19:04:00,
2013-01-09 12:09:00,54.3,15.1,30.24,North,11,6.9,6.9,21,0.00,-RA,OVC,0.00,WeatherDisplay:10.37,2013-01-09 19:09:00,
2013-01-09 12:14:00,54.7,15.5,30.24,North,355,10.4,10.4,21,0.00,-RA,OVC,0.00,WeatherDisplay:10.37,2013-01-09 19:14:00,
2013-01-09 12:19:00,55.1,14.7,30.24,NNW,346,8.1,8.1,20,0.00,-RA,OVC,0.00,WeatherDisplay:10.37,2013-01-09 19:19:00,
2013-01-09 12:24:00,55.3,14.8,30.15,North,5,11.5,11.5,20,0.00,-RA,OVC,0.00,WeatherDisplay:10.37,2013-01-09 19:24:00,
2013-01-09 12:29:00,55.4,13.8,30.15,NNW,338,9.2,9.2,19,0.00,-RA,OVC,0.00,WeatherDisplay:10.37,2013-01-09 19:29:00,
2013-01-09 12:34:00,55.9,15.3,30.15,NW,319,5.8,5.8,20,0.00,-RA,OVC,0.00,WeatherDisplay:10.37,2013-01-09 19:34:00,
2013-01-09 12:39:00,56.2,14.4,30.15,North,10,10.4,10.4,19,0.00,-RA,OVC,0.00,WeatherDisplay:10.37,2013-01-09 19:39:00,
2013-01-09 12:44:00,56.5,14.7,30.15,NNW,330,9.2,9.2,19,0.00,-RA,OVC,0.00,WeatherDisplay:10.37,2013-01-09 19:44:00,
2013-01-09 12:49:00,56.7,14.8,30.15,NNW,342,6.9,6.9,19,0.00,-RA,OVC,0.00,WeatherDisplay:10.37,2013-01-09 19:49:00,
2013-01-09 12:54:00,57.1,15.2,30.15,NNW,329,5.8,5.8,19,0.00,-RA,OVC,0.00,WeatherDisplay:10.37,2013-01-09 19:54:00,
2013-01-09 12:59:00,57.6,15.6,30.15,North,5,4.6,4.6,19,0.00,-RA,OVC,0.00,WeatherDisplay:10.37,2013-01-09 19:59:00,
2013-01-09 13:04:00,58.2,14.8,30.15,North,355,10.4,10.4,18,0.00,-RA,OVC,0.00,WeatherDisplay:10.37,2013-01-09 20:04:00,
2013-01-09 13:09:00,58.3,14.9,30.15,NNW,328,11.5,11.5,18,0.00,-RA,OVC,0.00,WeatherDisplay:10.37,2013-01-09 20:09:00,
2013-01-09 13:14:00,58.1,14.8,30.11,North,355,9.2,9.2,18,0.00,-RA,OVC,0.00,WeatherDisplay:10.37,2013-01-09 20:14:00,
2013-01-09 13:19:00,58.2,14.8,30.11,NW,319,9.2,9.2,18,0.00,-RA,OVC,0.00,WeatherDisplay:10.37,2013-01-09 20:19:00,
2013-01-09 13:24:00,58.4,15.0,30.11,North,355,6.9,6.9,18,0.00,-RA,OVC,0.00,WeatherDisplay:10.37,2013-01-09 20:24:00,
2013-01-09 13:29:00,58.7,15.2,30.11,NNW,336,3.5,3.5,18,0.00,-RA,OVC,0.00,WeatherDisplay:10.37,2013-01-09 20:29:00,
2013-01-09 13:34:00,59.2,14.3,30.11,NW,304,3.5,3.5,17,0.00,-RA,OVC,0.00,WeatherDisplay:10.37,2013-01-09 20:34:00,
2013-01-09 13:39:00,59.5,14.6,30.11,NNW,329,5.8,5.8,17,0.00,-RA,OVC,0.00,WeatherDisplay:10.37,2013-01-09 20:39:00,
2013-01-09 13:44:00,59.7,14.8,30.11,West,281,5.8,5.8,17,0.00,-RA,OVC,0.00,WeatherDisplay:10.37,2013-01-09 20:44:00,
2013-01-09 13:49:00,59.6,14.7,30.11,WNW,284,3.5,3.5,17,0.00,-RA,OVC,0.00,WeatherDisplay:10.37,2013-01-09 20:49:00,
2013-01-09 13:54:00,59.6,14.7,30.11,West,277,4.0,4.0,17,0.00,-RA,OVC,0.00,WeatherDisplay:10.37,2013-01-09 20:54:00,
2013-01-09 13:59:00,59.8,14.8,30.11,West,277,3.5,3.5,17,0.00,-RA,OVC,0.00,WeatherDisplay:10.37,2013-01-09 20:59:00,
2013-01-09 14:04:00,60.0,15.0,30.11,West,277,1.1,1.1,17,0.00,-RA,OVC,0.00,WeatherDisplay:10.37,2013-01-09 21:04:00,
2013-01-09 14:09:00,60.4,15.3,30.11,West,277,1.1,1.1,17,0.00,-RA,OVC,0.00,WeatherDisplay:10.37,2013-01-09 21:09:00,
2013-01-09 14:14:00,61.1,14.5,30.11,West,277,3.5,3.5,16,0.00,-RA,OVC,0.00,WeatherDisplay:10.37,2013-01-09 21:14:00,
2013-01-09 14:19:00,61.8,15.1,30.11,West,277,0.0,0.2,16,0.00,-RA,OVC,0.00,WeatherDisplay:10.37,2013-01-09 21:19:00,
2013-01-09 14:24:00,61.9,13.7,30.11,WNW,287,3.5,3.5,15,0.00,-RA,OVC,0.00,WeatherDisplay:10.37,2013-01-09 21:24:00,
2013-01-09 14:29:00,61.9,15.1,30.11,WNW,292,1.1,1.1,16,0.00,-RA,OVC,0.00,WeatherDisplay:10.37,2013-01-09 21:29:00,
2013-01-09 14:34:00,62.1,15.3,30.10,WNW,292,3.5,3.5,16,0.00,-RA,OVC,0.00,WeatherDisplay:10.37,2013-01-09 21:34:00,
2013-01-09 14:39:00,62.2,13.9,30.10,WNW,292,0.0,0.1,15,0.00,-RA,OVC,0.00,WeatherDisplay:10.37,2013-01-09 21:39:00,
2013-01-09 14:44:00,62.2,13.9,30.10,WNW,284,1.1,1.1,15,0.00,-RA,OVC,0.00,WeatherDisplay:10.37,2013-01-09 21:44:00,
2013-01-09 14:49:00,62.1,13.8,30.10,WNW,284,0.0,0.0,15,0.00,-RA,OVC,0.00,WeatherDisplay:10.37,2013-01-09 21:49:00,
2013-01-09 14:54:00,62.6,14.2,30.10,WNW,284,1.1,0.0,15,0.00,-RA,OVC,0.00,WeatherDisplay:10.37,2013-01-09 21:54:00,
2013-01-09 14:59:00,62.6,14.2,30.10,WNW,284,3.5,3.5,15,0.00,-RA,OVC,0.00,WeatherDisplay:10.37,2013-01-09 21:59:00,
2013-01-09 15:04:00,62.2,13.9,30.10,WNW,284,2.3,2.3,15,0.00,-RA,OVC,0.00,WeatherDisplay:10.37,2013-01-09 22:04:00,
2013-01-09 15:09:00,61.7,15.0,30.10,SSW,204,4.6,4.6,16,0.00,-RA,OVC,0.00,WeatherDisplay:10.37,2013-01-09 22:09:00,
2013-01-09 15:14:00,61.5,16.2,30.10,SSW,204,1.1,1.1,17,0.00,-RA,OVC,0.00,WeatherDisplay:10.37,2013-01-09 22:14:00,
2013-01-09 15:19:00,61.0,15.8,30.10,SE,129,4.6,4.6,17,0.00,-RA,OVC,0.00,WeatherDisplay:10.37,2013-01-09 22:19:00,
2013-01-09 15:24:00,60.3,15.2,30.10,South,175,3.5,3.5,17,0.00,-RA,OVC,0.00,WeatherDisplay:10.37,2013-01-09 22:24:00,
2013-01-09 15:29:00,59.7,14.8,30.10,SE,141,3.5,3.5,17,0.00,-RA,OVC,0.00,WeatherDisplay:10.37,2013-01-09 22:29:00,
2013-01-09 15:34:00,59.5,15.9,30.10,SSE,154,3.5,3.5,18,0.00,-RA,OVC,0.00,WeatherDisplay:10.37,2013-01-09 22:34:00,
2013-01-09 15:39:00,59.0,15.5,30.10,SSW,192,5.8,5.8,18,0.00,-RA,OVC,0.00,WeatherDisplay:10.37,2013-01-09 22:39:00,
2013-01-09 15:44:00,58.9,15.4,30.10,SSE,153,2.3,2.3,18,0.00,-RA,OVC,0.00,WeatherDisplay:10.37,2013-01-09 22:44:00,
2013-01-09 15:49:00,58.7,15.2,30.10,SSE,161,3.5,3.5,18,0.00,-RA,OVC,0.00,WeatherDisplay:10.37,2013-01-09 22:49:00,
2013-01-09 15:54:00,58.5,15.1,30.10,South,190,6.9,6.9,18,0.00,-RA,OVC,0.00,WeatherDisplay:10.37,2013-01-09 22:54:00,
2013-01-09 15:59:00,58.2,14.8,30.10,South,190,3.5,3.5,18,0.00,-RA,OVC,0.00,WeatherDisplay:10.37,2013-01-09 22:59:00,
2013-01-09 16:04:00,58.0,15.9,30.10,South,188,3.5,3.5,19,0.00,-RA,OVC,0.00,WeatherDisplay:10.37,2013-01-09 23:04:00,
2013-01-09 16:09:00,57.7,15.7,30.10,South,188,3.5,3.5,19,0.00,-RA,OVC,0.00,WeatherDisplay:10.37,2013-01-09 23:09:00,
2013-01-09 16:14:00,57.1,15.2,30.08,South,186,1.1,1.1,19,0.00,-RA,OVC,0.00,WeatherDisplay:10.37,2013-01-09 23:14:00,
2013-01-09 16:19:00,56.6,14.8,30.08,South,188,3.5,3.5,19,0.00,-RA,OVC,0.00,WeatherDisplay:10.37,2013-01-09 23:19:00,
2013-01-09 16:24:00,55.9,16.5,30.08,South,190,9.2,9.2,21,0.00,-RA,OVC,0.00,WeatherDisplay:10.37,2013-01-09 23:24:00,
2013-01-09 16:29:00,54.6,18.5,30.08,South,180,9.2,9.2,24,0.00,-RA,OVC,0.00,WeatherDisplay:10.37,2013-01-09 23:29:00,
2013-01-09 16:34:00,53.4,19.3,30.08,South,184,8.1,8.1,26,0.00,-RA,OVC,0.00,WeatherDisplay:10.37,2013-01-09 23:34:00,
2013-01-09 16:39:00,52.4,19.3,30.08,South,188,5.8,5.8,27,0.00,-RA,OVC,0.00,WeatherDisplay:10.37,2013-01-09 23:39:00,
2013-01-09 16:44:00,51.6,19.5,30.08,South,185,6.9,6.9,28,0.00,-RA,OVC,0.00,WeatherDisplay:10.37,2013-01-09 23:44:00,
2013-01-09 16:49:00,50.9,19.7,30.08,South,171,3.5,3.5,29,0.00,-RA,OVC,0.00,WeatherDisplay:10.37,2013-01-09 23:49:00,
2013-01-09 16:54:00,50.5,19.4,30.08,South,176,2.3,0.0,29,0.00,-RA,OVC,0.00,WeatherDisplay:10.37,2013-01-09 23:54:00,
2013-01-09 16:59:00,50.1,19.8,30.08,South,176,0.0,0.0,30,0.00,-RA,OVC,0.00,WeatherDisplay:10.37,2013-01-09 23:59:00,
2013-01-09 17:04:00,49.6,19.4,30.08,South,176,0.0,0.0,30,0.00,-RA,OVC,0.00,WeatherDisplay:10.37,2013-01-10 00:04:00,
2013-01-09 17:09:00,48.9,19.5,30.08,South,176,0.0,0.0,31,0.00,-RA,OVC,0.00,WeatherDisplay:10.37,2013-01-10 00:09:00,
2013-01-09 17:14:00,48.2,19.7,30.08,South,176,2.3,2.3,32,0.00,-RA,OVC,0.00,WeatherDisplay:10.37,2013-01-10 00:14:00,
2013-01-09 17:19:00,47.8,19.3,30.08,South,176,0.0,0.0,32,0.00,-RA,OVC,0.00,WeatherDisplay:10.37,2013-01-10 00:19:00,
2013-01-09 17:24:00,47.3,19.6,30.08,South,176,0.0,0.0,33,0.00,-RA,OVC,0.00,WeatherDisplay:10.37,2013-01-10 00:24:00,
2013-01-09 17:29:00,46.5,19.6,30.08,South,176,0.0,0.0,34,0.00,-RA,OVC,0.00,WeatherDisplay:10.37,2013-01-10 00:29:00,
2013-01-09 17:34:00,45.7,19.6,30.08,South,176,0.0,0.0,35,0.00,-RA,OVC,0.00,WeatherDisplay:10.37,2013-01-10 00:34:00,
2013-01-09 17:39:00,45.0,19.6,30.08,South,176,0.0,0.0,36,0.00,-RA,OVC,0.00,WeatherDisplay:10.37,2013-01-10 00:39:00,
2013-01-09 17:44:00,44.3,19.6,30.08,South,176,0.0,0.0,37,0.00,-RA,OVC,0.00,WeatherDisplay:10.37,2013-01-10 00:44:00,
2013-01-09 17:49:00,43.7,19.7,30.08,South,176,0.0,0.0,38,0.00,-RA,OVC,0.00,WeatherDisplay:10.37,2013-01-10 00:49:00,
2013-01-09 17:54:00,43.1,19.8,30.08,South,176,0.0,0.0,39,0.00,-RA,OVC,0.00,WeatherDisplay:10.37,2013-01-10 00:54:00,
2013-01-09 17:59:00,42.4,19.2,30.08,South,176,0.0,0.0,39,0.00,-RA,OVC,0.00,WeatherDisplay:10.37,2013-01-10 00:59:00,
2013-01-09 18:04:00,41.7,19.1,30.08,South,176,1.1,1.1,40,0.00,-RA,OVC,0.00,WeatherDisplay:10.37,2013-01-10 01:04:00,
2013-01-09 18:09:00,41.2,19.2,30.08,South,176,0.0,0.0,41,0.00,-RA,OVC,0.00,WeatherDisplay:10.37,2013-01-10 01:09:00,
2013-01-09 18:14:00,40.7,19.4,30.08,South,176,0.0,0.0,42,0.00,-RA,OVC,0.00,WeatherDisplay:10.37,2013-01-10 01:14:00,
2013-01-09 18:19:00,40.4,19.1,30.08,South,176,0.0,0.0,42,0.00,-RA,OVC,0.00,WeatherDisplay:10.37,2013-01-10 01:19:00,
2013-01-09 18:24:00,40.0,19.3,30.08,South,176,0.0,0.0,43,0.00,-RA,OVC,0.00,WeatherDisplay:10.37,2013-01-10 01:24:00,
2013-01-09 18:29:00,39.5,18.8,30.08,South,176,0.0,0.0,43,0.00,-RA,OVC,0.00,WeatherDisplay:10.37,2013-01-10 01:29:00,
2013-01-09 18:34:00,38.9,19.3,30.08,South,176,0.0,0.0,45,0.00,-RA,OVC,0.00,WeatherDisplay:10.37,2013-01-10 01:34:00,
2013-01-09 18:39:00,38.4,18.9,30.08,South,176,2.3,2.3,45,0.00,-RA,OVC,0.00,WeatherDisplay:10.37,2013-01-10 01:39:00,
2013-01-09 18:44:00,37.9,18.9,30.08,South,176,0.0,0.0,46,0.00,-RA,OVC,0.00,WeatherDisplay:10.37,2013-01-10 01:44:00,
2013-01-09 18:49:00,37.6,18.2,30.08,South,176,0.0,0.0,45,0.00,-RA,OVC,0.00,WeatherDisplay:10.37,2013-01-10 01:49:00,
2013-01-09 18:54:00,37.4,18.0,30.08,South,176,0.0,0.0,45,0.00,-RA,OVC,0.00,WeatherDisplay:10.37,2013-01-10 01:54:00,
2013-01-09 18:59:00,37.3,18.4,30.08,South,176,0.0,0.0,46,0.00,-RA,OVC,0.00,WeatherDisplay:10.37,2013-01-10 01:59:00,
2013-01-09 19:04:00,37.0,18.1,30.08,South,176,2.3,2.3,46,0.00,-RA,OVC,0.00,WeatherDisplay:10.37,2013-01-10 02:04:00,
2013-01-09 19:09:00,37.1,18.2,30.08,South,176,0.0,0.1,46,0.00,-RA,OVC,0.00,WeatherDisplay:10.37,2013-01-10 02:09:00,
2013-01-09 19:14:00,37.0,18.1,30.08,South,176,0.0,0.0,46,0.00,-RA,OVC,0.00,WeatherDisplay:10.37,2013-01-10 02:14:00,
2013-01-09 19:19:00,36.9,18.0,30.08,South,176,0.0,0.0,46,0.00,-RA,OVC,0.00,WeatherDisplay:10.37,2013-01-10 02:19:00,
2013-01-09 19:24:00,37.0,18.1,30.08,South,176,0.0,0.0,46,0.00,-RA,OVC,0.00,WeatherDisplay:10.37,2013-01-10 02:24:00,
2013-01-09 19:29:00,37.1,18.2,30.08,South,176,0.0,0.0,46,0.00,-RA,OVC,0.00,WeatherDisplay:10.37,2013-01-10 02:29:00,
2013-01-09 19:34:00,37.3,18.4,30.07,South,176,0.0,0.0,46,0.00,-RA,OVC,0.00,WeatherDisplay:10.37,2013-01-10 02:34:00,
2013-01-09 19:39:00,37.4,18.0,30.07,South,176,0.0,0.0,45,0.00,-RA,OVC,0.00,WeatherDisplay:10.37,2013-01-10 02:39:00,
2013-01-09 19:44:00,37.4,18.5,30.07,South,176,0.0,0.0,46,0.00,-RA,OVC,0.00,WeatherDisplay:10.37,2013-01-10 02:44:00,
2013-01-09 19:49:00,37.3,18.4,30.07,South,176,0.0,0.0,46,0.00,-RA,OVC,0.00,WeatherDisplay:10.37,2013-01-10 02:49:00,
2013-01-09 19:59:00,36.7,18.3,30.05,South,176,0.0,0.0,47,0.00,-RA,OVC,0.00,WeatherDisplay:10.37,2013-01-10 02:59:00,
2013-01-09 20:04:00,36.3,18.0,30.05,South,176,2.3,2.3,47,0.00,-RA,OVC,0.00,WeatherDisplay:10.37,2013-01-10 03:04:00,
2013-01-09 20:09:00,35.5,17.7,30.05,South,177,1.1,1.1,48,0.00,-RA,OVC,0.00,WeatherDisplay:10.37,2013-01-10 03:09:00,
2013-01-09 20:14:00,35.0,16.8,30.05,ENE,73,4.6,4.6,47,0.00,-RA,OVC,0.00,WeatherDisplay:10.37,2013-01-10 03:14:00,
2013-01-09 20:19:00,35.1,16.9,30.05,ENE,60,4.6,4.6,47,0.00,-RA,OVC,0.00,WeatherDisplay:10.37,2013-01-10 03:19:00,
2013-01-09 20:24:00,35.5,16.7,30.05,NE,45,4.6,4.6,46,0.00,-RA,OVC,0.00,WeatherDisplay:10.37,2013-01-10 03:24:00,
2013-01-09 20:29:00,36.1,16.3,30.06,NE,43,3.5,3.5,44,0.00,-RA,OVC,0.00,WeatherDisplay:10.37,2013-01-10 03:29:00,
2013-01-09 20:34:00,36.5,16.1,30.06,NE,43,0.0,0.0,43,0.00,-RA,OVC,0.00,WeatherDisplay:10.37,2013-01-10 03:34:00,
2013-01-09 20:39:00,36.4,16.0,30.06,NE,43,3.5,3.5,43,0.00,-RA,OVC,0.00,WeatherDisplay:10.37,2013-01-10 03:39:00,
2013-01-09 20:44:00,36.2,16.4,30.06,NE,43,2.3,2.3,44,0.00,-RA,OVC,0.00,WeatherDisplay:10.37,2013-01-10 03:44:00,
2013-01-09 20:49:00,36.2,16.9,30.06,NE,43,3.5,3.5,45,0.00,-RA,OVC,0.00,WeatherDisplay:10.37,2013-01-10 03:49:00,
2013-01-09 20:54:00,36.2,16.9,30.06,NE,43,1.1,1.1,45,0.00,-RA,OVC,0.00,WeatherDisplay:10.37,2013-01-10 03:54:00,
2013-01-09 20:59:00,36.1,16.8,30.06,NE,43,0.0,0.0,45,0.00,-RA,OVC,0.00,WeatherDisplay:10.37,2013-01-10 03:59:00,
2013-01-09 21:04:00,35.9,16.6,30.03,NE,43,0.0,0.0,45,0.00,-RA,OVC,0.00,WeatherDisplay:10.37,2013-01-10 04:04:00,
2013-01-09 21:09:00,35.7,15.9,30.03,NE,43,0.0,0.0,44,0.00,-RA,OVC,0.00,WeatherDisplay:10.37,2013-01-10 04:09:00,
2013-01-09 21:14:00,35.5,16.2,30.03,NE,43,0.0,0.0,45,0.00,-RA,OVC,0.00,WeatherDisplay:10.37,2013-01-10 04:14:00,
2013-01-09 21:19:00,35.0,16.3,30.03,NE,43,0.0,0.0,46,0.00,-RA,OVC,0.00,WeatherDisplay:10.37,2013-01-10 04:19:00,
2013-01-09 21:24:00,34.5,16.3,30.03,NE,43,0.0,0.0,47,0.00,-RA,OVC,0.00,WeatherDisplay:10.37,2013-01-10 04:24:00,
2013-01-09 21:29:00,33.9,16.3,30.03,NE,43,1.1,1.1,48,0.00,-RA,OVC,0.00,WeatherDisplay:10.37,2013-01-10 04:29:00,
2013-01-09 21:34:00,33.2,16.5,30.03,NE,43,3.5,3.5,50,0.00,-RA,OVC,0.00,WeatherDisplay:10.37,2013-01-10 04:34:00,
2013-01-09 21:39:00,32.5,15.9,30.03,NE,43,0.0,0.0,50,0.00,-RA,OVC,0.00,WeatherDisplay:10.37,2013-01-10 04:39:00,
2013-01-09 21:44:00,32.0,15.9,30.03,NE,43,2.3,2.3,51,0.00,-RA,OVC,0.00,WeatherDisplay:10.37,2013-01-10 04:44:00,
2013-01-09 21:49:00,31.9,15.3,30.03,NE,43,2.3,2.3,50,0.00,-RA,OVC,0.00,WeatherDisplay:10.37,2013-01-10 04:49:00,
2013-01-09 21:54:00,32.1,15.1,30.02,NE,43,2.3,2.3,49,0.00,-RA,OVC,0.00,WeatherDisplay:10.37,2013-01-10 04:54:00,
2013-01-09 21:59:00,32.3,15.3,30.02,NE,43,3.5,3.5,49,0.00,-RA,OVC,0.00,WeatherDisplay:10.37,2013-01-10 04:59:00,
2013-01-09 22:00:00,32.3,15.3,30.02,NE,43,3.5,0.0,49,0.00,-RA,OVC,0.00,WeatherDisplay:10.37,2013-01-10 05:00:00,
2013-01-09 22:01:00,32.3,15.3,30.02,NE,43,3.5,0.0,49,0.00,-RA,OVC,0.00,WeatherDisplay:10.37,2013-01-10 05:01:00,
2013-01-09 22:03:00,32.4,14.9,30.02,NE,43,2.0,2.0,48,0.00,-RA,OVC,0.00,WeatherDisplay:10.37,2013-01-10 05:03:00,
2013-01-09 22:08:00,33.1,15.0,30.02,NE,43,2.3,2.3,47,0.00,-RA,OVC,0.00,WeatherDisplay:10.37,2013-01-10 05:08:00,
2013-01-09 22:13:00,33.3,15.2,30.02,NE,43,2.3,2.3,47,0.00,-RA,OVC,0.00,WeatherDisplay:10.37,2013-01-10 05:13:00,
2013-01-09 22:18:00,34.2,14.0,30.02,NE,43,3.5,3.5,43,0.00,-RA,OVC,0.00,WeatherDisplay:10.37,2013-01-10 05:18:00,
2013-01-09 22:23:00,34.3,14.1,30.02,NE,43,2.3,2.3,43,0.00,-RA,OVC,0.00,WeatherDisplay:10.37,2013-01-10 05:23:00,
2013-01-09 22:28:00,34.1,13.9,30.02,NE,43,0.0,0.0,43,0.00,-RA,OVC,0.00,WeatherDisplay:10.37,2013-01-10 05:28:00,
2013-01-09 22:33:00,33.6,14.0,30.02,NE,43,0.0,0.0,44,0.00,-RA,OVC,0.00,WeatherDisplay:10.37,2013-01-10 05:33:00,
2013-01-09 22:38:00,33.3,14.2,30.02,NE,43,0.0,0.0,45,0.00,-RA,OVC,0.00,WeatherDisplay:10.37,2013-01-10 05:38:00,
2013-01-09 22:43:00,33.0,14.4,30.02,NE,43,0.0,0.0,46,0.00,-RA,OVC,0.00,WeatherDisplay:10.37,2013-01-10 05:43:00,
2013-01-09 22:48:00,32.9,14.4,30.02,NE,43,0.0,0.0,46,0.00,-RA,OVC,0.00,WeatherDisplay:10.37,2013-01-10 05:48:00,
2013-01-09 22:53:00,32.7,14.2,30.02,NE,44,1.1,1.1,46,0.00,-RA,OVC,0.00,WeatherDisplay:10.37,2013-01-10 05:53:00,
2013-01-09 22:58:00,32.5,14.0,30.02,NE,44,0.0,0.0,46,0.00,-RA,OVC,0.00,WeatherDisplay:10.37,2013-01-10 05:58:00,
2013-01-09 23:03:00,32.1,14.1,30.02,NE,43,3.5,3.5,47,0.00,-RA,OVC,0.00,WeatherDisplay:10.37,2013-01-10 06:03:00,
2013-01-09 23:08:00,31.8,13.8,30.02,NE,44,0.0,0.0,47,0.00,-RA,OVC,0.00,WeatherDisplay:10.37,2013-01-10 06:08:00,
2013-01-09 23:13:00,32.4,13.4,30.02,NE,43,4.6,4.6,45,0.00,-RA,OVC,0.00,WeatherDisplay:10.37,2013-01-10 06:13:00,
2013-01-09 23:18:00,33.7,13.0,30.02,NE,43,3.5,3.5,42,0.00,-RA,OVC,0.00,WeatherDisplay:10.37,2013-01-10 06:18:00,
2013-01-09 23:23:00,34.8,12.9,30.02,NE,42,2.3,2.3,40,0.00,-RA,OVC,0.00,WeatherDisplay:10.37,2013-01-10 06:23:00,
2013-01-09 23:28:00,35.4,12.9,30.02,NE,42,0.0,0.0,39,0.00,-RA,OVC,0.00,WeatherDisplay:10.37,2013-01-10 06:28:00,
2013-01-09 23:33:00,35.7,13.1,30.02,NE,42,3.5,3.5,39,0.00,-RA,OVC,0.00,WeatherDisplay:10.37,2013-01-10 06:33:00,
2013-01-09 23:38:00,35.8,14.4,30.02,NE,42,2.3,2.3,41,0.00,-RA,OVC,0.00,WeatherDisplay:10.37,2013-01-10 06:38:00,
2013-01-09 23:43:00,35.2,13.3,30.02,NE,42,2.3,2.3,40,0.00,-RA,OVC,0.00,WeatherDisplay:10.37,2013-01-10 06:43:00,
2013-01-09 23:48:00,34.7,13.4,30.02,NE,42,3.5,3.5,41,0.00,-RA,OVC,0.00,WeatherDisplay:10.37,2013-01-10 06:48:00,
2013-01-09 23:53:00,34.2,12.9,30.02,NE,42,1.1,1.1,41,0.00,-RA,OVC,0.00,WeatherDisplay:10.37,2013-01-10 06:53:00,
2013-01-09 23:58:00,33.8,14.2,30.02,NE,42,1.1,1.1,44,0.00,-RA,OVC,0.00,WeatherDisplay:10.37,2013-01-10 06:58:00,